Terminal Aerodrome Forecast
Issued by NWS Dodge City, KS

Home | Current Version | Previous Version | Text Only | Print | Product List | Glossary On
Versions: 1 2 3 4 5 6 7 8 9 10 11 12 13 14 15 16 17 18 19 20 21 22 23 24 25 26 27 28 29 30 31 32 33 34 35 36 37 38 39 40
000
FTUS43 KDDC 310746 AAA
TAFDDC
TAF AMD
KDDC 310746Z 3108/0106 VRB05KT 3SM BR OVC002
      TEMPO 3110/3114 1/2SM FG OVC001
     FM311600 02005KT P6SM BKN025
     FM311700 03006KT P6SM BKN045 PROB30 3118/3122 4SM -TSRA
      OVC025CB=

USA.gov is the U.S. government's official web portal to all federal, state and local government web resources and services.